createdAt,value
2018-03-30T00:00:34.116Z,82.26
2018-03-30T00:02:35.561Z,82.16
2018-03-30T00:04:37.194Z,82.45
2018-03-30T00:06:38.807Z,81.30
2018-03-30T00:08:40.473Z,81.78
2018-03-30T00:10:41.955Z,81.30
2018-03-30T00:12:43.476Z,81.78
2018-03-30T00:14:45.195Z,81.30
2018-03-30T00:16:46.640Z,81.49
2018-03-30T00:18:48.485Z,81.30
2018-03-30T00:20:50.186Z,81.49
2018-03-30T00:22:52.184Z,81.30
2018-03-30T00:24:53.642Z,81.78
2018-03-30T00:26:55.337Z,81.87
2018-03-30T00:28:56.975Z,81.97
2018-03-30T00:30:58.433Z,81.87
2018-03-30T00:32:59.903Z,81.87
2018-03-30T00:35:01.541Z,81.68
2018-03-30T00:37:03.317Z,81.78
2018-03-30T00:39:05.016Z,81.87
2018-03-30T00:41:06.530Z,81.87
2018-03-30T00:43:07.959Z,81.78
2018-03-30T00:45:09.723Z,81.78
2018-03-30T00:47:11.378Z,82.03
2018-03-30T00:49:13.047Z,82.69
2018-03-30T00:51:14.588Z,82.97
2018-03-30T00:53:16.081Z,82.54
2018-03-30T00:55:17.831Z,82.78
2018-03-30T00:57:19.685Z,83.54
2018-03-30T00:59:21.471Z,82.97
2018-03-30T01:01:22.990Z,84.01
2018-03-30T01:03:24.407Z,84.78
2018-03-30T01:05:25.978Z,85.78
2018-03-30T01:07:27.511Z,86.44
2018-03-30T01:09:29.071Z,87.01
2018-03-30T01:11:30.783Z,87.11
2018-03-30T01:13:32.432Z,86.82
2018-03-30T01:15:33.926Z,87.39
2018-03-30T01:17:35.396Z,87.30
2018-03-30T01:19:36.978Z,87.96
2018-03-30T01:21:38.831Z,88.43
2018-03-30T01:23:40.703Z,88.43
2018-03-30T01:25:42.289Z,89.53
2018-03-30T01:27:43.708Z,89.86
2018-03-30T01:29:45.298Z,89.10
2018-03-30T01:31:46.851Z,88.53
2018-03-30T01:33:48.564Z,88.34
2018-03-30T01:35:50.350Z,88.53
2018-03-30T01:37:51.793Z,88.24
2018-03-30T01:39:53.646Z,87.87
2018-03-30T01:41:55.434Z,88.53
2018-03-30T01:43:57.106Z,87.87
2018-03-30T01:45:58.831Z,87.77
2018-03-30T01:48:00.696Z,87.58
2018-03-30T01:50:02.436Z,86.91
2018-03-30T01:52:04.195Z,87.39
2018-03-30T01:54:05.718Z,87.01
2018-03-30T01:56:07.253Z,87.58
2018-03-30T01:58:09.060Z,88.43
2018-03-30T02:00:10.740Z,88.43
2018-03-30T02:02:12.336Z,88.34
2018-03-30T02:04:13.789Z,88.24
2018-03-30T02:06:15.338Z,87.77
2018-03-30T02:08:16.779Z,87.77
2018-03-30T02:10:18.229Z,87.68
2018-03-30T02:12:19.724Z,87.20
2018-03-30T02:14:21.299Z,87.96
2018-03-30T02:16:22.974Z,88.72
2018-03-30T02:18:24.437Z,89.10
2018-03-30T02:20:25.887Z,88.91
2018-03-30T02:22:27.610Z,88.53
2018-03-30T02:24:29.333Z,88.53
2018-03-30T02:26:31.211Z,88.24
2018-03-30T02:28:33.144Z,88.24
2018-03-30T02:30:34.684Z,88.06
2018-03-30T02:32:36.444Z,88.06
2018-03-30T02:34:38.313Z,87.96
2018-03-30T02:36:39.807Z,87.20
2018-03-30T02:38:41.556Z,86.68
2018-03-30T02:40:43.297Z,86.30
2018-03-30T02:42:44.745Z,86.49
2018-03-30T02:44:46.454Z,86.58
2018-03-30T02:46:48.201Z,86.49
2018-03-30T02:48:49.842Z,86.11
2018-03-30T02:50:51.594Z,85.25
2018-03-30T02:52:53.348Z,85.25
2018-03-30T02:54:54.966Z,85.06
2018-03-30T02:56:56.697Z,84.49
2018-03-30T02:58:58.334Z,85.06
2018-03-30T03:01:00.146Z,84.87
2018-03-30T03:03:03.111Z,85.06
2018-03-30T03:05:04.734Z,85.16
2018-03-30T03:07:06.457Z,85.06
2018-03-30T03:09:08.236Z,84.68
2018-03-30T03:11:09.917Z,84.87
2018-03-30T03:13:11.392Z,85.16
2018-03-30T03:15:13.008Z,85.16
2018-03-30T03:17:14.700Z,85.63
2018-03-30T03:19:16.366Z,86.30
2018-03-30T03:21:17.841Z,85.91
2018-03-30T03:23:19.577Z,84.59
2018-03-30T03:25:21.221Z,84.59
2018-03-30T03:27:23.003Z,84.40
2018-03-30T03:29:24.435Z,84.40
2018-03-30T03:31:25.971Z,84.78
2018-03-30T03:33:27.597Z,84.59
2018-03-30T03:35:29.306Z,85.06
2018-03-30T03:37:31.017Z,84.87
2018-03-30T03:39:32.684Z,85.63
2018-03-30T03:41:34.383Z,84.97
2018-03-30T03:43:36.196Z,84.59
2018-03-30T03:45:37.658Z,84.59
2018-03-30T03:47:39.444Z,84.78
2018-03-30T03:49:41.197Z,85.63
2018-03-30T03:51:42.834Z,85.25
2018-03-30T03:53:44.628Z,85.53
2018-03-30T03:55:46.311Z,84.87
2018-03-30T03:57:47.972Z,84.30
2018-03-30T03:59:49.678Z,84.01
2018-03-30T04:01:51.328Z,84.59
2018-03-30T04:03:53.030Z,84.30
2018-03-30T04:05:54.689Z,84.59
2018-03-30T04:07:56.322Z,84.30
2018-03-30T04:09:58.048Z,83.92
2018-03-30T04:11:59.490Z,84.59
2018-03-30T04:14:00.927Z,85.72
2018-03-30T04:16:02.506Z,85.25
2018-03-30T04:18:03.956Z,85.53
2018-03-30T04:20:05.419Z,85.44
2018-03-30T04:22:07.286Z,84.49
2018-03-30T04:24:08.966Z,84.87
2018-03-30T04:26:10.690Z,85.91
2018-03-30T04:28:12.360Z,85.63
2018-03-30T04:30:13.784Z,86.44
2018-03-30T04:32:15.718Z,88.06
2018-03-30T04:34:17.545Z,89.10
2018-03-30T04:36:19.378Z,89.58
2018-03-30T04:38:21.024Z,89.20
2018-03-30T04:40:22.945Z,89.33
2018-03-30T04:42:24.570Z,89.14
2018-03-30T04:44:26.245Z,89.33
2018-03-30T04:46:27.937Z,89.53
2018-03-30T04:48:29.523Z,89.62
2018-03-30T04:50:31.351Z,89.14
2018-03-30T04:52:32.995Z,89.24
2018-03-30T04:54:34.790Z,89.33
2018-03-30T04:56:36.450Z,89.33
2018-03-30T04:58:38.044Z,89.24
2018-03-30T05:00:39.834Z,89.05
2018-03-30T05:02:41.620Z,89.81
2018-03-30T05:04:43.374Z,89.33
2018-03-30T05:06:44.824Z,89.33
2018-03-30T05:08:46.397Z,88.76
2018-03-30T05:10:48.215Z,88.39
2018-03-30T05:12:49.839Z,89.14
2018-03-30T05:14:51.492Z,88.76
2018-03-30T05:16:53.077Z,88.86
2018-03-30T05:18:54.885Z,89.81
2018-03-30T05:20:56.695Z,90.19
2018-03-30T05:22:58.444Z,90.00
2018-03-30T05:25:00.009Z,91.52
2018-03-30T05:27:01.480Z,91.33
2018-03-30T05:29:03.281Z,91.24
2018-03-30T05:31:04.717Z,90.95
2018-03-30T05:33:06.447Z,90.57
2018-03-30T05:35:08.015Z,90.76
2018-03-30T05:37:09.422Z,90.38
2018-03-30T05:39:11.127Z,90.19
2018-03-30T05:41:12.770Z,90.95
2018-03-30T05:43:14.594Z,90.95
2018-03-30T05:45:16.369Z,90.85
2018-03-30T05:47:17.999Z,90.19
2018-03-30T05:49:19.638Z,90.19
2018-03-30T05:51:21.223Z,90.76
2018-03-30T05:53:22.678Z,90.85
2018-03-30T05:55:24.170Z,90.28
2018-03-30T05:57:25.640Z,90.09
2018-03-30T05:59:27.431Z,89.62
2018-03-30T06:01:29.035Z,89.81
2018-03-30T06:03:30.642Z,90.47
2018-03-30T06:05:32.286Z,90.47
2018-03-30T06:07:33.972Z,89.62
2018-03-30T06:09:35.671Z,90.19
2018-03-30T06:11:37.405Z,89.53
2018-03-30T06:13:39.239Z,89.53
2018-03-30T06:15:40.911Z,89.14
2018-03-30T06:17:42.570Z,89.43
2018-03-30T06:19:44.396Z,89.81
2018-03-30T06:21:46.228Z,89.62
2018-03-30T06:23:47.865Z,89.72
2018-03-30T06:25:49.475Z,89.76
2018-03-30T06:27:51.156Z,89.43
2018-03-30T06:29:52.741Z,89.38
2018-03-30T06:31:54.177Z,89.86
2018-03-30T06:33:55.696Z,89.86
2018-03-30T06:35:57.187Z,89.38
2018-03-30T06:37:58.625Z,89.47
2018-03-30T06:40:00.499Z,89.28
2018-03-30T06:42:02.173Z,88.53
2018-03-30T06:44:03.959Z,88.81
2018-03-30T06:46:05.364Z,89.47
2018-03-30T06:48:06.939Z,89.00
2018-03-30T06:50:08.589Z,88.81
2018-03-30T06:52:10.022Z,89.00
2018-03-30T06:54:11.473Z,89.00
2018-03-30T06:56:12.938Z,88.62
2018-03-30T06:58:14.624Z,88.71
2018-03-30T07:00:16.292Z,88.62
2018-03-30T07:02:17.990Z,88.81
2018-03-30T07:04:19.712Z,88.53
2018-03-30T07:06:21.341Z,89.38
2018-03-30T07:08:23.000Z,89.28
2018-03-30T07:10:24.691Z,89.67
2018-03-30T07:12:26.285Z,89.28
2018-03-30T07:14:27.921Z,89.86
2018-03-30T07:16:29.601Z,89.76
2018-03-30T07:18:31.259Z,89.38
2018-03-30T07:20:32.948Z,89.76
2018-03-30T07:22:34.597Z,89.19
2018-03-30T07:24:36.286Z,89.76
2018-03-30T07:26:38.001Z,89.38
2018-03-30T07:28:39.680Z,89.57
2018-03-30T07:30:41.364Z,89.57
2018-03-30T07:32:42.808Z,89.38
2018-03-30T07:34:44.244Z,88.81
2018-03-30T07:36:45.854Z,89.28
2018-03-30T07:38:47.230Z,89.00
2018-03-30T07:40:48.637Z,89.19
2018-03-30T07:42:50.842Z,89.00
2018-03-30T07:44:53.850Z,89.57
2018-03-30T07:46:55.709Z,89.76
2018-03-30T07:48:57.799Z,89.67
2018-03-30T07:50:59.466Z,89.76
2018-03-30T07:53:00.983Z,89.86
2018-03-30T07:55:02.814Z,88.53
2018-03-30T07:57:04.464Z,89.38
2018-03-30T07:59:05.962Z,89.90
2018-03-30T08:01:07.554Z,89.47
2018-03-30T08:03:08.994Z,88.43
2018-03-30T08:05:10.449Z,88.47
2018-03-30T08:07:12.219Z,89.23
2018-03-30T08:09:13.679Z,88.28
2018-03-30T08:11:15.341Z,88.38
2018-03-30T08:13:17.039Z,87.34
2018-03-30T08:15:18.787Z,87.19
2018-03-30T08:17:20.197Z,87.19
2018-03-30T08:19:21.952Z,85.57
2018-03-30T08:21:23.526Z,84.66
2018-03-30T08:23:24.912Z,83.76
2018-03-30T08:25:26.417Z,84.24
2018-03-30T08:27:28.080Z,84.05
2018-03-30T08:29:30.945Z,83.95
2018-03-30T08:31:32.455Z,85.24
2018-03-30T08:33:34.184Z,84.00
2018-03-30T08:35:35.644Z,84.19
2018-03-30T08:37:37.278Z,84.95
2018-03-30T08:39:39.202Z,85.14
2018-03-30T08:41:41.109Z,85.52
2018-03-30T08:43:42.609Z,84.05
2018-03-30T08:45:44.065Z,84.33
2018-03-30T08:47:45.622Z,83.62
2018-03-30T08:49:47.312Z,83.95
2018-03-30T08:51:49.104Z,84.56
2018-03-30T08:53:50.792Z,84.00
2018-03-30T08:55:52.657Z,84.24
2018-03-30T08:57:54.290Z,84.91
2018-03-30T08:59:55.747Z,83.19
2018-03-30T09:01:57.245Z,83.29
2018-03-30T09:03:58.889Z,82.91
2018-03-30T09:06:00.577Z,83.76
2018-03-30T09:08:02.207Z,83.76
2018-03-30T09:10:03.938Z,83.42
2018-03-30T09:12:05.650Z,83.62
2018-03-30T09:14:08.287Z,83.04
2018-03-30T09:16:09.889Z,84.19
2018-03-30T09:18:11.352Z,83.90
2018-03-30T09:20:13.298Z,83.04
2018-03-30T09:22:15.296Z,84.13
2018-03-30T09:24:16.996Z,82.23
2018-03-30T09:26:18.781Z,81.56
2018-03-30T09:28:20.590Z,80.61
2018-03-30T09:30:22.136Z,79.60
2018-03-30T09:32:23.897Z,77.42
2018-03-30T09:34:25.403Z,78.85
2018-03-30T09:36:26.887Z,76.50
2018-03-30T09:38:28.441Z,77.55
2018-03-30T09:40:29.892Z,76.98
2018-03-30T09:42:31.391Z,74.50
2018-03-30T09:44:32.829Z,76.50
2018-03-30T09:46:34.239Z,76.69
2018-03-30T09:48:35.663Z,74.73
2018-03-30T09:50:37.085Z,74.73
2018-03-30T09:52:38.511Z,74.06
2018-03-30T09:54:40.221Z,74.73
2018-03-30T09:56:41.730Z,74.92
2018-03-30T09:58:43.408Z,74.73
2018-03-30T10:00:45.223Z,74.16
2018-03-30T10:02:46.884Z,72.63
2018-03-30T10:04:48.540Z,72.92
2018-03-30T10:06:50.289Z,74.54
2018-03-30T10:08:52.060Z,73.96
2018-03-30T10:10:53.613Z,74.19
2018-03-30T10:12:55.077Z,72.09
2018-03-30T10:14:56.505Z,73.52
2018-03-30T10:16:57.926Z,72.96
2018-03-30T10:18:59.350Z,71.62
2018-03-30T10:21:00.769Z,71.56
2018-03-30T10:23:02.202Z,69.78
2018-03-30T10:25:03.620Z,67.68
2018-03-30T10:27:05.038Z,69.21
2018-03-30T10:29:06.515Z,68.16
2018-03-30T10:31:08.258Z,67.49
2018-03-30T10:33:09.744Z,68.82
2018-03-30T10:35:11.192Z,68.88
2018-03-30T10:37:12.707Z,68.73
2018-03-30T10:39:14.316Z,68.54
2018-03-30T10:41:15.800Z,67.24
2018-03-30T10:43:17.306Z,66.85
2018-03-30T10:45:18.960Z,66.66
2018-03-30T10:47:20.680Z,66.00
2018-03-30T10:49:22.186Z,67.27
2018-03-30T10:51:23.699Z,65.55
2018-03-30T10:53:25.175Z,64.88
2018-03-30T10:55:26.629Z,65.55
2018-03-30T10:57:28.359Z,65.04
2018-03-30T10:59:30.016Z,66.13
2018-03-30T11:01:31.774Z,64.31
2018-03-30T11:03:33.526Z,64.40
2018-03-30T11:05:35.427Z,65.64
2018-03-30T11:07:37.014Z,63.57
2018-03-30T11:09:38.557Z,62.81
2018-03-30T11:11:40.014Z,62.59
2018-03-30T11:13:41.460Z,62.14
2018-03-30T11:15:42.974Z,61.47
2018-03-30T11:17:44.423Z,62.43
2018-03-30T11:19:45.911Z,60.33
2018-03-30T11:21:47.782Z,60.35
2018-03-30T11:23:49.398Z,60.93
2018-03-30T11:25:51.224Z,61.02
2018-03-30T11:27:52.847Z,60.10
2018-03-30T11:29:54.949Z,59.14
2018-03-30T11:31:56.755Z,57.90
2018-03-30T11:33:58.578Z,56.27
2018-03-30T11:36:00.323Z,55.79
2018-03-30T11:38:02.032Z,56.53
2018-03-30T11:40:03.769Z,56.82
2018-03-30T11:42:05.810Z,57.17
2018-03-30T11:44:07.580Z,56.21
2018-03-30T11:46:09.388Z,56.69
2018-03-30T11:48:11.098Z,56.50
2018-03-30T11:50:12.809Z,57.10
2018-03-30T11:52:14.519Z,54.23
2018-03-30T11:54:16.352Z,55.57
2018-03-30T11:56:18.258Z,55.31
2018-03-30T11:58:20.651Z,55.15
2018-03-30T12:00:22.376Z,52.95
2018-03-30T12:02:24.238Z,50.56
2018-03-30T12:04:25.984Z,51.51
2018-03-30T12:06:27.687Z,51.51
2018-03-30T12:08:29.545Z,50.46
2018-03-30T12:10:31.366Z,50.26
2018-03-30T12:12:33.152Z,51.13
2018-03-30T12:14:34.933Z,51.32
2018-03-30T12:16:37.410Z,50.65
2018-03-30T12:18:39.283Z,51.99
2018-03-30T12:20:41.007Z,51.70
2018-03-30T12:22:42.820Z,51.92
2018-03-30T12:24:44.577Z,50.20
2018-03-30T12:26:46.292Z,47.97
2018-03-30T12:28:48.126Z,48.16
2018-03-30T12:30:49.878Z,48.16
2018-03-30T12:32:51.594Z,47.49
2018-03-30T12:34:53.266Z,48.47
2018-03-30T12:36:55.028Z,46.46
2018-03-30T12:38:56.702Z,45.50
2018-03-30T12:40:58.467Z,44.64
2018-03-30T12:43:00.092Z,44.06
2018-03-30T12:45:01.912Z,45.31
2018-03-30T12:47:03.686Z,42.99
2018-03-30T12:49:05.613Z,43.95
2018-03-30T12:51:07.340Z,44.59
2018-03-30T12:53:09.154Z,44.12
2018-03-30T12:55:10.870Z,44.31
2018-03-30T12:57:12.637Z,43.54
2018-03-30T12:59:14.442Z,45.29
2018-03-30T13:01:16.140Z,44.23
2018-03-30T13:03:18.061Z,44.52
2018-03-30T13:05:19.903Z,43.76
2018-03-30T13:07:21.586Z,42.58
2018-03-30T13:09:23.518Z,43.85
2018-03-30T13:11:25.168Z,43.18
2018-03-30T13:13:27.023Z,43.95
2018-03-30T13:15:28.792Z,43.27
2018-03-30T13:17:30.619Z,43.06
2018-03-30T13:19:32.266Z,43.83
2018-03-30T13:21:34.070Z,45.17
2018-03-30T13:23:36.088Z,44.59
2018-03-30T13:25:37.895Z,45.84
2018-03-30T13:27:40.008Z,44.13
2018-03-30T13:29:42.191Z,43.08
2018-03-30T13:31:43.920Z,43.85
2018-03-30T13:33:45.803Z,44.23
2018-03-30T13:35:47.591Z,43.27
2018-03-30T13:37:49.453Z,43.76
2018-03-30T13:39:51.227Z,43.37
2018-03-30T13:41:53.412Z,44.13
2018-03-30T13:43:55.425Z,44.43
2018-03-30T13:45:57.226Z,44.62
2018-03-30T13:47:59.057Z,45.86
2018-03-30T13:50:00.852Z,44.52
2018-03-30T13:52:02.780Z,44.33
2018-03-30T13:54:04.367Z,44.13
2018-03-30T13:56:06.282Z,44.33
2018-03-30T13:58:07.990Z,42.77
2018-03-30T14:00:09.921Z,43.62
2018-03-30T14:02:11.692Z,44.86
2018-03-30T14:04:13.521Z,45.15
2018-03-30T14:06:15.565Z,43.73
2018-03-30T14:08:17.388Z,43.35
2018-03-30T14:10:19.213Z,42.20
2018-03-30T14:12:20.934Z,42.40
2018-03-30T14:14:22.827Z,43.35
2018-03-30T14:16:24.587Z,43.63
2018-03-30T14:18:26.420Z,42.97
2018-03-30T14:20:28.239Z,44.12
2018-03-30T14:22:30.086Z,43.47
2018-03-30T14:24:31.914Z,44.12
2018-03-30T14:26:33.755Z,45.29
2018-03-30T14:28:35.595Z,45.96
2018-03-30T14:30:37.445Z,46.15
2018-03-30T14:32:39.128Z,44.43
2018-03-30T14:34:40.918Z,45.96
2018-03-30T14:36:42.626Z,47.58
2018-03-30T14:38:44.552Z,44.71
2018-03-30T14:40:46.255Z,46.05
2018-03-30T14:42:48.155Z,45.38
2018-03-30T14:44:49.916Z,44.33
2018-03-30T14:46:51.737Z,44.81
2018-03-30T14:48:53.485Z,44.12
2018-03-30T14:50:55.288Z,44.31
2018-03-30T14:52:57.175Z,45.94
2018-03-30T14:54:59.010Z,45.94
2018-03-30T14:57:00.733Z,44.40
2018-03-30T14:59:02.515Z,44.21
2018-03-30T15:01:04.290Z,44.12
2018-03-30T15:03:06.182Z,44.59
2018-03-30T15:05:07.879Z,44.69
2018-03-30T15:07:09.646Z,44.21
2018-03-30T15:09:11.456Z,43.83
2018-03-30T15:11:13.304Z,43.73
2018-03-30T15:13:15.122Z,43.06
2018-03-30T15:15:16.912Z,44.50
2018-03-30T15:17:18.646Z,43.92
2018-03-30T15:19:20.323Z,44.69
2018-03-30T15:21:22.260Z,44.88
2018-03-30T15:23:24.146Z,44.59
2018-03-30T15:25:26.103Z,45.94
2018-03-30T15:27:27.903Z,47.37
2018-03-30T15:29:29.662Z,46.03
2018-03-30T15:31:31.413Z,46.51
2018-03-30T15:33:33.132Z,46.41
2018-03-30T15:35:34.891Z,45.17
2018-03-30T15:37:36.736Z,46.22
2018-03-30T15:39:38.455Z,45.91
2018-03-30T15:41:40.489Z,45.91
2018-03-30T15:43:42.296Z,47.16
2018-03-30T15:45:44.114Z,46.39
2018-03-30T15:47:45.910Z,46.01
2018-03-30T15:49:47.753Z,47.16
2018-03-30T15:51:49.651Z,46.48
2018-03-30T15:53:51.446Z,47.44
2018-03-30T15:55:53.284Z,47.25
2018-03-30T15:57:55.004Z,47.16
2018-03-30T15:59:56.951Z,46.48
2018-03-30T16:01:58.743Z,46.37
2018-03-30T16:04:00.471Z,47.42
2018-03-30T16:06:02.256Z,47.53
2018-03-30T16:08:04.059Z,47.44
2018-03-30T16:10:05.713Z,47.44
2018-03-30T16:12:08.266Z,47.44
2018-03-30T16:14:09.933Z,47.44
2018-03-30T16:16:11.601Z,47.42
2018-03-30T16:18:13.677Z,47.89
2018-03-30T16:20:15.537Z,47.99
2018-03-30T16:22:17.294Z,49.52
2018-03-30T16:24:19.069Z,48.39
2018-03-30T16:26:20.820Z,48.47
2018-03-30T16:28:22.550Z,47.52
2018-03-30T16:30:24.316Z,47.32
2018-03-30T16:32:25.990Z,48.28
2018-03-30T16:34:27.776Z,48.66
2018-03-30T16:36:29.812Z,47.99
2018-03-30T16:39:12.262Z,47.61
2018-03-30T16:41:13.797Z,47.61
2018-03-30T16:43:15.437Z,48.28
2018-03-30T16:45:17.139Z,48.09
2018-03-30T16:47:18.931Z,48.28
2018-03-30T16:49:20.632Z,48.38
2018-03-30T16:51:22.476Z,48.85
2018-03-30T16:53:24.233Z,48.44
2018-03-30T16:55:25.942Z,48.44
2018-03-30T16:57:27.768Z,49.04
2018-03-30T16:59:29.521Z,48.38
2018-03-30T17:01:31.355Z,48.38
2018-03-30T17:03:33.046Z,48.47
2018-03-30T17:05:34.840Z,48.18
2018-03-30T17:07:36.672Z,48.57
2018-03-30T17:09:38.336Z,48.57
2018-03-30T17:11:40.137Z,48.66
2018-03-30T17:13:41.883Z,48.66
2018-03-30T17:15:43.677Z,50.00
2018-03-30T17:17:45.437Z,48.66
2018-03-30T17:19:47.192Z,48.57
2018-03-30T17:21:48.911Z,49.04
2018-03-30T17:23:50.755Z,48.95
2018-03-30T17:25:52.393Z,48.66
2018-03-30T17:27:53.978Z,48.95
2018-03-30T17:29:55.689Z,49.14
2018-03-30T17:31:57.880Z,50.00
2018-03-30T17:33:59.609Z,49.59
2018-03-30T17:36:01.398Z,49.98
2018-03-30T17:38:03.201Z,50.16
2018-03-30T17:40:04.983Z,50.26
2018-03-30T17:42:06.686Z,50.35
2018-03-30T17:44:08.485Z,50.45
2018-03-30T17:46:10.208Z,50.55
2018-03-30T17:48:11.969Z,51.03
2018-03-30T17:50:13.741Z,51.41
2018-03-30T17:52:15.466Z,51.79
2018-03-30T17:54:17.163Z,51.98
2018-03-30T17:56:18.929Z,52.65
2018-03-30T17:58:20.583Z,52.55
2018-03-30T18:00:22.390Z,52.26
2018-03-30T18:02:24.105Z,52.36
2018-03-30T18:04:25.832Z,52.94
2018-03-30T18:06:27.557Z,53.13
2018-03-30T18:08:29.393Z,52.91
2018-03-30T18:10:31.112Z,53.80
2018-03-30T18:12:33.291Z,52.65
2018-03-30T18:14:35.082Z,52.94
2018-03-30T18:16:36.912Z,52.84
2018-03-30T18:18:38.747Z,53.03
2018-03-30T18:20:40.567Z,53.20
2018-03-30T18:22:42.356Z,52.91
2018-03-30T18:24:43.996Z,53.10
2018-03-30T18:26:45.703Z,53.96
2018-03-30T18:28:47.427Z,53.20
2018-03-30T18:30:49.117Z,53.77
2018-03-30T18:32:50.894Z,53.58
2018-03-30T18:34:52.569Z,54.06
2018-03-30T18:36:54.377Z,53.67
2018-03-30T18:38:56.260Z,53.86
2018-03-30T18:40:57.962Z,54.15
2018-03-30T18:42:59.779Z,54.25
2018-03-30T18:45:01.524Z,54.53
2018-03-30T18:47:03.199Z,54.72
2018-03-30T18:49:04.899Z,54.63
2018-03-30T18:51:06.646Z,54.53
2018-03-30T18:53:08.315Z,54.25
2018-03-30T18:55:10.175Z,54.91
2018-03-30T18:57:11.980Z,54.34
2018-03-30T18:59:13.665Z,55.11
2018-03-30T19:01:15.208Z,55.46
2018-03-30T19:03:16.994Z,55.55
2018-03-30T19:05:18.767Z,54.82
2018-03-30T19:07:20.549Z,55.20
2018-03-30T19:09:22.350Z,55.36
2018-03-30T19:11:24.175Z,55.20
2018-03-30T19:13:25.988Z,55.36
2018-03-30T19:15:27.729Z,55.49
2018-03-30T19:17:29.471Z,55.30
2018-03-30T19:19:31.217Z,55.27
2018-03-30T19:21:32.968Z,55.46
2018-03-30T19:23:34.802Z,55.18
2018-03-30T19:25:36.508Z,55.08
2018-03-30T19:27:38.259Z,54.99
2018-03-30T19:29:39.981Z,54.70
2018-03-30T19:31:41.824Z,55.08
2018-03-30T19:33:43.662Z,55.75
2018-03-30T19:35:45.429Z,55.27
2018-03-30T19:37:47.280Z,55.27
2018-03-30T19:39:49.008Z,54.99
2018-03-30T19:41:50.724Z,55.55
2018-03-30T19:43:52.512Z,55.08
2018-03-30T19:45:54.234Z,55.08
2018-03-30T19:47:56.056Z,55.08
2018-03-30T19:49:57.699Z,55.55
2018-03-30T19:51:59.487Z,55.65
2018-03-30T19:54:01.216Z,55.27
2018-03-30T19:56:03.025Z,55.65
2018-03-30T19:58:04.697Z,55.36
2018-03-30T20:00:06.524Z,55.27
2018-03-30T20:02:08.405Z,55.18
2018-03-30T20:04:10.116Z,55.27
2018-03-30T20:06:12.027Z,55.36
2018-03-30T20:08:13.794Z,56.04
2018-03-30T20:10:15.712Z,56.04
2018-03-30T20:12:17.564Z,55.27
2018-03-30T20:14:19.383Z,55.75
2018-03-30T20:16:21.176Z,55.65
2018-03-30T20:18:22.875Z,56.32
2018-03-30T20:20:24.613Z,56.23
2018-03-30T20:22:26.367Z,58.04
2018-03-30T20:24:28.113Z,60.81
2018-03-30T20:26:29.958Z,61.38
2018-03-30T20:28:31.567Z,62.52
2018-03-30T20:30:33.309Z,62.97
2018-03-30T20:32:35.109Z,65.80
2018-03-30T20:34:36.822Z,68.18
2018-03-30T20:36:38.541Z,72.09
2018-03-30T20:38:40.275Z,72.57
2018-03-30T20:40:42.044Z,71.94
2018-03-30T20:42:43.841Z,71.27
2018-03-30T20:44:45.589Z,71.94
2018-03-30T20:46:47.301Z,74.04
2018-03-30T20:48:49.062Z,72.99
2018-03-30T20:50:50.903Z,70.70
2018-03-30T20:52:52.735Z,72.51
2018-03-30T20:54:54.493Z,73.08
2018-03-30T20:56:56.234Z,70.98
2018-03-30T20:58:57.998Z,74.23
2018-03-30T21:00:59.842Z,72.89
2018-03-30T21:03:01.539Z,74.61
2018-03-30T21:05:03.432Z,71.37
2018-03-30T21:07:05.137Z,72.03
2018-03-30T21:09:06.851Z,74.99
2018-03-30T21:11:08.668Z,75.28
2018-03-30T21:13:10.434Z,74.99
2018-03-30T21:15:12.121Z,75.85
2018-03-30T21:17:13.908Z,75.66
2018-03-30T21:19:15.634Z,76.52
2018-03-30T21:21:17.350Z,79.15
2018-03-30T21:23:19.134Z,79.86
2018-03-30T21:25:20.933Z,79.67
2018-03-30T21:27:22.763Z,79.67
2018-03-30T21:29:24.514Z,79.67
2018-03-30T21:31:26.315Z,79.06
2018-03-30T21:33:28.031Z,82.15
2018-03-30T21:35:29.697Z,80.30
2018-03-30T21:37:31.845Z,82.87
2018-03-30T21:39:33.779Z,82.11
2018-03-30T21:41:35.546Z,81.44
2018-03-30T21:43:37.384Z,81.25
2018-03-30T21:45:39.054Z,82.07
2018-03-30T21:47:41.040Z,82.92
2018-03-30T21:49:42.744Z,83.40
2018-03-30T21:51:44.416Z,84.07
2018-03-30T21:53:46.249Z,84.74
2018-03-30T21:55:48.007Z,84.55
2018-03-30T21:57:49.684Z,85.50
2018-03-30T21:59:53.682Z,86.79
2018-03-30T22:01:55.428Z,87.17
2018-03-30T22:03:57.247Z,88.75
2018-03-30T22:05:58.900Z,91.31
2018-03-30T22:08:00.598Z,91.60
2018-03-30T22:10:04.124Z,92.08
2018-03-30T22:12:06.745Z,92.36
2018-03-30T22:14:08.599Z,92.46
2018-03-30T22:16:10.445Z,95.27
2018-03-30T22:18:12.211Z,97.36
2018-03-30T22:20:13.947Z,98.32
2018-03-30T22:22:15.751Z,99.79
2018-03-30T22:24:17.426Z,99.46
2018-03-30T22:26:19.137Z,99.99
2018-03-30T22:28:20.865Z,99.69
2018-03-30T22:30:22.694Z,99.99
2018-03-30T22:32:24.545Z,99.99
2018-03-30T22:34:26.163Z,99.99
2018-03-30T22:36:27.843Z,99.99
2018-03-30T22:39:10.446Z,98.32
2018-03-30T22:41:12.111Z,96.94
2018-03-30T22:43:13.717Z,95.60
2018-03-30T22:45:15.163Z,95.60
2018-03-30T22:47:18.615Z,94.74
2018-03-30T22:49:20.408Z,93.89
2018-03-30T22:51:22.131Z,93.37
2018-03-30T22:53:23.715Z,92.46
2018-03-30T22:55:25.608Z,92.60
2018-03-30T22:57:27.252Z,92.60
2018-03-30T22:59:28.930Z,92.60
2018-03-30T23:01:30.553Z,91.74
2018-03-30T23:03:32.254Z,91.55
2018-03-30T23:05:33.914Z,91.17
2018-03-30T23:07:35.725Z,91.36
2018-03-30T23:09:37.416Z,91.22
2018-03-30T23:11:39.146Z,90.08
2018-03-30T23:13:40.749Z,90.64
2018-03-30T23:15:42.457Z,89.50
2018-03-30T23:17:44.169Z,89.98
2018-03-30T23:19:45.901Z,90.26
2018-03-30T23:21:47.565Z,90.26
2018-03-30T23:23:49.329Z,89.79
2018-03-30T23:25:51.026Z,89.50
2018-03-30T23:27:52.740Z,89.12
2018-03-30T23:29:54.409Z,89.22
2018-03-30T23:31:56.201Z,88.93
2018-03-30T23:33:57.904Z,89.22
2018-03-30T23:35:59.597Z,89.12
2018-03-30T23:38:01.527Z,88.84
2018-03-30T23:40:03.127Z,88.55
2018-03-30T23:42:04.774Z,89.79
2018-03-30T23:44:06.474Z,89.69
2018-03-30T23:46:08.197Z,90.36
2018-03-30T23:48:09.883Z,89.94
2018-03-30T23:50:11.783Z,90.89
2018-03-30T23:52:13.591Z,91.13
2018-03-30T23:54:15.367Z,90.89
2018-03-30T23:56:17.267Z,91.84
2018-03-30T23:58:19.053Z,91.60
